Latest Weather Observations for Colpoys Point

IDW60801

Issued at 9:53 pm WST Friday 23 April 2021 (issued every 10 minutes, with the page automatically refreshed every 10 minutes)

About weather observations | Map of weather stations | Latest weather observations for WA | Other Formats
Station Details ID: 009255 Name: COLPOYS POINT Lat: -32.23 Lon: 115.70 Height: 3.0 m
Data from the previous 72 hours. | See also: Recent months for locations in Western Australia
Date/Time
WST
Temp
°C
App
Temp
°C
Dew
Point
°C
Rel
Hum
%
Delta-T
°C
Wind Press
QNH
hPa
Press
MSL
hPa
Rain since
9am
mm
Dir  Spd
km/h
Gust
km/h
Spd
kts
Gust
kts
23/09:30pm - - - - - S 17 19 9 10 - - -
23/09:00pm - - - - - S 13 15 7 8 - - -
23/08:30pm - - - - - S 17 19 9 10 - - -
23/08:00pm - - - - - S 17 19 9 10 - - -
23/07:30pm - - - - - S 15 17 8 9 - - -
23/07:00pm - - - - - S 17 20 9 11 - - -
23/06:30pm - - - - - SSW 20 24 11 13 - - -
23/06:00pm - - - - - SSW 22 28 12 15 - - -
23/05:30pm - - - - - SSW 26 30 14 16 - - -
23/05:00pm - - - - - SSW 24 30 13 16 - - -
23/04:30pm - - - - - SSW 26 33 14 18 - - -
23/04:00pm - - - - - SW 24 32 13 17 - - -
23/03:30pm - - - - - SSW 28 33 15 18 - - -
23/03:00pm - - - - - SSW 24 28 13 15 - - -
23/02:30pm - - - - - SSW 19 24 10 13 - - -
23/02:00pm - - - - - SW 17 19 9 10 - - -
23/01:30pm - - - - - E 11 15 6 8 - - -
23/01:00pm - - - - - E 13 15 7 8 - - -
23/12:30pm - - - - - E 11 11 6 6 - - -
23/12:00pm - - - - - E 9 9 5 5 - - -
23/11:30am - - - - - ENE 7 9 4 5 - - -
23/11:00am - - - - - ENE 9 11 5 6 - - -
23/10:30am - - - - - ENE 13 17 7 9 - - -
23/10:00am - - - - - ENE 15 17 8 9 - - -
23/09:30am - - - - - ENE 17 19 9 10 - - -
23/09:00am - - - - - E 17 20 9 11 - - -
23/08:30am - - - - - ENE 17 20 9 11 - - -
23/08:00am - - - - - E 19 24 10 13 - - -
23/07:30am - - - - - E 15 19 8 10 - - -
23/07:00am - - - - - E 17 24 9 13 - - -
23/06:30am - - - - - E 17 20 9 11 - - -
23/06:00am - - - - - ENE 15 19 8 10 - - -
23/05:30am - - - - - E 11 17 6 9 - - -
23/05:00am - - - - - E 13 17 7 9 - - -
23/04:30am - - - - - ESE 13 15 7 8 - - -
23/04:00am - - - - - E 15 17 8 9 - - -
23/03:30am - - - - - E 17 19 9 10 - - -
23/03:00am - - - - - E 17 19 9 10 - - -
23/02:30am - - - - - E 17 22 9 12 - - -
23/02:00am - - - - - E 17 19 9 10 - - -
23/01:30am - - - - - ESE 15 17 8 9 - - -
23/01:00am - - - - - E 15 19 8 10 - - -
23/12:30am - - - - - E 17 20 9 11 - - -
23/12:00am - - - - - E 20 26 11 14 - - -
 
Date/Time
WST
Temp
°C
App
Temp
°C
Dew
Point
°C
Rel
Hum
%
Delta-T
°C
Wind Press
QNH
hPa
Press
MSL
hPa
Rain since
9am
mm
Dir  Spd
km/h
Gust
km/h
Spd
kts
Gust
kts
22/11:30pm - - - - - ESE 17 22 9 12 - - -
22/11:00pm - - - - - ESE 13 17 7 9 - - -
22/10:30pm - - - - - SE 15 17 8 9 - - -
22/10:00pm - - - - - SSE 13 15 7 8 - - -
22/09:30pm - - - - - SSE 13 17 7 9 - - -
22/09:00pm - - - - - SE 15 17 8 9 - - -
22/08:30pm - - - - - SE 17 19 9 10 - - -
22/08:00pm - - - - - SE 17 20 9 11 - - -
22/07:30pm - - - - - SE 19 22 10 12 - - -
22/07:00pm - - - - - SSE 15 17 8 9 - - -
22/06:30pm - - - - - SSE 15 17 8 9 - - -
22/06:00pm - - - - - SSE 17 19 9 10 - - -
22/05:30pm - - - - - SSE 19 20 10 11 - - -
22/05:00pm - - - - - SSE 22 28 12 15 - - -
22/04:30pm - - - - - SSE 22 28 12 15 - - -
22/04:00pm - - - - - SE 20 24 11 13 - - -
22/03:30pm - - - - - SE 20 26 11 14 - - -
22/03:00pm - - - - - SE 19 22 10 12 - - -
22/02:30pm - - - - - SSE 17 19 9 10 - - -
22/02:00pm - - - - - SE 15 17 8 9 - - -
22/01:30pm - - - - - SSE 13 15 7 8 - - -
22/01:00pm - - - - - ESE 11 13 6 7 - - -
22/12:30pm - - - - - E 13 19 7 10 - - -
22/12:00pm - - - - - ENE 17 22 9 12 - - -
22/11:30am - - - - - E 20 28 11 15 - - -
22/11:00am - - - - - ENE 22 30 12 16 - - -
22/10:30am - - - - - ENE 30 33 16 18 - - -
22/10:00am - - - - - ENE 26 32 14 17 - - -
22/09:30am - - - - - ENE 32 35 17 19 - - -
22/09:00am - - - - - ENE 22 32 12 17 - - -
22/08:30am - - - - - E 19 22 10 12 - - -
22/08:00am - - - - - E 19 22 10 12 - - -
22/07:30am - - - - - E 19 22 10 12 - - -
22/07:00am - - - - - E 20 26 11 14 - - -
22/06:30am - - - - - E 22 28 12 15 - - -
22/06:00am - - - - - E 26 30 14 16 - - -
22/05:30am - - - - - E 28 32 15 17 - - -
22/05:00am - - - - - E 26 32 14 17 - - -
22/04:30am - - - - - E 28 33 15 18 - - -
22/04:00am - - - - - E 28 35 15 19 - - -
22/03:30am - - - - - E 24 28 13 15 - - -
22/03:00am - - - - - ESE 17 22 9 12 - - -
22/02:30am - - - - - ESE 15 19 8 10 - - -
22/02:00am - - - - - ESE 17 20 9 11 - - -
22/01:30am - - - - - ESE 17 20 9 11 - - -
22/01:00am - - - - - ESE 19 22 10 12 - - -
22/12:30am - - - - - ESE 26 32 14 17 - - -
22/12:00am - - - - - ESE 28 33 15 18 - - -
 
Date/Time
WST
Temp
°C
App
Temp
°C
Dew
Point
°C
Rel
Hum
%
Delta-T
°C
Wind Press
QNH
hPa
Press
MSL
hPa
Rain since
9am
mm
Dir  Spd
km/h
Gust
km/h
Spd
kts
Gust
kts
21/11:30pm - - - - - ESE 30 35 16 19 - - -
21/11:00pm - - - - - SE 24 28 13 15 - - -
21/10:30pm - - - - - SE 17 28 9 15 - - -
21/10:00pm - - - - - ESE 15 17 8 9 - - -
21/09:30pm - - - - - ESE 17 19 9 10 - - -
21/09:00pm - - - - - SE 17 22 9 12 - - -
21/08:30pm - - - - - SE 19 22 10 12 - - -
21/08:00pm - - - - - SSE 20 26 11 14 - - -
21/07:30pm - - - - - SSE 19 22 10 12 - - -
21/07:00pm - - - - - SSE 20 24 11 13 - - -
21/06:30pm - - - - - SSE 22 28 12 15 - - -
21/06:00pm - - - - - SSE 24 28 13 15 - - -
21/05:30pm - - - - - S 20 24 11 13 - - -
21/05:00pm - - - - - SSW 26 33 14 18 - - -
21/04:30pm - - - - - SSW 28 33 15 18 - - -
21/04:00pm - - - - - SSW 30 33 16 18 - - -
21/03:30pm - - - - - SSW 32 37 17 20 - - -
21/03:00pm - - - - - SSW 33 37 18 20 - - -
21/02:30pm - - - - - SSW 32 37 17 20 - - -
21/02:00pm - - - - - SSW 32 35 17 19 - - -
21/01:30pm - - - - - SSW 28 32 15 17 - - -
21/01:00pm - - - - - SSW 19 26 10 14 - - -
21/12:30pm - - - - - S 17 28 9 15 - - -
21/12:00pm - - - - - SSE 13 17 7 9 - - -
21/11:30am - - - - - SSE 9 11 5 6 - - -
21/11:00am - - - - - ESE 9 15 5 8 - - -
21/10:30am - - - - - SE 13 15 7 8 - - -
21/10:00am - - - - - SSE 15 19 8 10 - - -
21/09:30am - - - - - SE 13 17 7 9 - - -
21/09:00am - - - - - SE 13 15 7 8 - - -
21/08:30am - - - - - SSE 15 19 8 10 - - -
21/08:00am - - - - - SSE 17 20 9 11 - - -
21/07:30am - - - - - SSE 17 19 9 10 - - -
21/07:00am - - - - - SE 17 20 9 11 - - -
21/06:30am - - - - - SE 20 26 11 14 - - -
21/06:00am - - - - - SSE 24 28 13 15 - - -
21/05:30am - - - - - SSE 24 28 13 15 - - -
21/05:00am - - - - - SE 22 26 12 14 - - -
21/04:30am - - - - - SSE 24 28 13 15 - - -
21/04:00am - - - - - SSE 22 28 12 15 - - -
21/03:30am - - - - - SSE 26 30 14 16 - - -
21/03:00am - - - - - SSE 26 30 14 16 - - -
21/02:30am - - - - - SSE 24 28 13 15 - - -
21/02:00am - - - - - SSE 22 26 12 14 - - -
21/01:30am - - - - - S 26 30 14 16 - - -
21/01:00am - - - - - S 28 32 15 17 - - -
21/12:30am - - - - - S 26 30 14 16 - - -
21/12:00am - - - - - S 22 28 12 15 - - -
 
Date/Time
WST
Temp
°C
App
Temp
°C
Dew
Point
°C
Rel
Hum
%
Delta-T
°C
Wind Press
QNH
hPa
Press
MSL
hPa
Rain since
9am
mm
Dir  Spd
km/h
Gust
km/h
Spd
kts
Gust
kts
20/11:30pm - - - - - S 22 28 12 15 - - -
20/11:00pm - - - - - S 20 24 11 13 - - -
20/10:30pm - - - - - S 19 24 10 13 - - -
20/10:00pm - - - - - S 15 19 8 10 - - -

Other formats

Comma delimited format used in spreadsheet applications
http://www.bom.gov.au/fwo/IDW60801/IDW60801.99255.axf

JavaScript Object Notation format (JSON) in row-major order
http://www.bom.gov.au/fwo/IDW60801/IDW60801.99255.json

Data quality

Most of these data are generated automatically and are frequently updated. Quality checks on data are not normally performed. It is possible for incorrect values to appear. Refer to information at About Latest Weather Observations and please check the disclaimer before using these data.